sensor_id;sensor_type;location;lat;lon;timestamp;temperature;humidity
52495;DHT22;38405;53.212;5.660;2022-11-20T00:01:13;0.20;99.90
52495;DHT22;38405;53.212;5.660;2022-11-20T00:03:40;0.20;99.90
52495;DHT22;38405;53.212;5.660;2022-11-20T00:06:08;0.20;99.90
52495;DHT22;38405;53.212;5.660;2022-11-20T00:08:34;0.20;99.90
52495;DHT22;38405;53.212;5.660;2022-11-20T00:11:05;0.20;99.90
52495;DHT22;38405;53.212;5.660;2022-11-20T00:13:31;0.20;99.90
52495;DHT22;38405;53.212;5.660;2022-11-20T00:15:58;0.30;99.90
52495;DHT22;38405;53.212;5.660;2022-11-20T00:18:24;0.20;99.90
52495;DHT22;38405;53.212;5.660;2022-11-20T00:20:50;0.30;99.90
52495;DHT22;38405;53.212;5.660;2022-11-20T00:23:15;0.30;99.90
52495;DHT22;38405;53.212;5.660;2022-11-20T00:25:41;0.20;99.90
52495;DHT22;38405;53.212;5.660;2022-11-20T00:28:07;0.20;99.90
52495;DHT22;38405;53.212;5.660;2022-11-20T00:30:32;0.20;99.90
52495;DHT22;38405;53.212;5.660;2022-11-20T00:32:58;0.10;99.90
52495;DHT22;38405;53.212;5.660;2022-11-20T00:35:23;0.10;99.90
52495;DHT22;38405;53.212;5.660;2022-11-20T00:37:49;0.10;99.90
52495;DHT22;38405;53.212;5.660;2022-11-20T00:40:15;0.00;99.90
52495;DHT22;38405;53.212;5.660;2022-11-20T00:42:41;0.00;99.90
52495;DHT22;38405;53.212;5.660;2022-11-20T00:45:06;0.60;99.90
52495;DHT22;38405;53.212;5.660;2022-11-20T00:47:32;-0.10;99.90
52495;DHT22;38405;53.212;5.660;2022-11-20T00:49:58;-0.20;99.90
52495;DHT22;38405;53.212;5.660;2022-11-20T00:52:23;-0.20;99.90
52495;DHT22;38405;53.212;5.660;2022-11-20T00:54:49;-0.20;99.90
52495;DHT22;38405;53.212;5.660;2022-11-20T00:57:14;-0.30;99.90
52495;DHT22;38405;53.212;5.660;2022-11-20T00:59:40;0.40;99.90
52495;DHT22;38405;53.212;5.660;2022-11-20T01:02:05;-0.30;99.90
52495;DHT22;38405;53.212;5.660;2022-11-20T01:04:31;-0.30;99.90
52495;DHT22;38405;53.212;5.660;2022-11-20T01:06:56;-0.40;99.90
52495;DHT22;38405;53.212;5.660;2022-11-20T01:09:22;-0.40;99.90
52495;DHT22;38405;53.212;5.660;2022-11-20T01:11:48;-0.40;99.90
52495;DHT22;38405;53.212;5.660;2022-11-20T01:14:16;-0.40;99.90
52495;DHT22;38405;53.212;5.660;2022-11-20T01:16:48;-0.40;99.90
52495;DHT22;38405;53.212;5.660;2022-11-20T01:19:19;-0.40;99.90
52495;DHT22;38405;53.212;5.660;2022-11-20T01:21:48;-0.40;99.90
52495;DHT22;38405;53.212;5.660;2022-11-20T01:24:17;-0.40;99.90
52495;DHT22;38405;53.212;5.660;2022-11-20T01:26:45;-0.40;99.90
52495;DHT22;38405;53.212;5.660;2022-11-20T01:29:14;-0.40;99.90
52495;DHT22;38405;53.212;5.660;2022-11-20T01:31:40;-0.30;99.90
52495;DHT22;38405;53.212;5.660;2022-11-20T01:34:12;-0.30;99.90
52495;DHT22;38405;53.212;5.660;2022-11-20T01:36:39;-0.30;99.90
52495;DHT22;38405;53.212;5.660;2022-11-20T01:39:16;-0.30;99.90
52495;DHT22;38405;53.212;5.660;2022-11-20T01:41:43;-0.30;99.90
52495;DHT22;38405;53.212;5.660;2022-11-20T01:47:14;-0.50;99.90
52495;DHT22;38405;53.212;5.660;2022-11-20T01:49:49;-0.20;99.90
52495;DHT22;38405;53.212;5.660;2022-11-20T01:52:32;0.00;99.90
52495;DHT22;38405;53.212;5.660;2022-11-20T01:55:03;-0.20;99.90
52495;DHT22;38405;53.212;5.660;2022-11-20T01:57:34;-0.20;99.90
52495;DHT22;38405;53.212;5.660;2022-11-20T02:00:10;-0.20;99.90
52495;DHT22;38405;53.212;5.660;2022-11-20T02:02:37;-0.10;99.90
52495;DHT22;38405;53.212;5.660;2022-11-20T02:05:14;-0.10;99.90
52495;DHT22;38405;53.212;5.660;2022-11-20T02:07:42;-0.10;99.90
52495;DHT22;38405;53.212;5.660;2022-11-20T02:10:08;0.00;99.90
52495;DHT22;38405;53.212;5.660;2022-11-20T02:12:34;0.00;99.90
52495;DHT22;38405;53.212;5.660;2022-11-20T02:15:18;0.10;99.90
52495;DHT22;38405;53.212;5.660;2022-11-20T02:17:46;0.10;99.90
52495;DHT22;38405;53.212;5.660;2022-11-20T02:20:12;-0.10;99.90
52495;DHT22;38405;53.212;5.660;2022-11-20T02:25:36;0.10;99.90
52495;DHT22;38405;53.212;5.660;2022-11-20T02:28:04;0.00;99.90
52495;DHT22;38405;53.212;5.660;2022-11-20T02:30:30;0.10;99.90
52495;DHT22;38405;53.212;5.660;2022-11-20T02:32:57;0.00;99.90
52495;DHT22;38405;53.212;5.660;2022-11-20T02:37:51;0.10;99.90
52495;DHT22;38405;53.212;5.660;2022-11-20T02:40:21;0.10;99.90
52495;DHT22;38405;53.212;5.660;2022-11-20T02:42:47;0.10;99.90
52495;DHT22;38405;53.212;5.660;2022-11-20T02:45:13;0.10;99.90
52495;DHT22;38405;53.212;5.660;2022-11-20T02:47:41;0.00;99.90
52495;DHT22;38405;53.212;5.660;2022-11-20T02:50:10;0.00;99.90
52495;DHT22;38405;53.212;5.660;2022-11-20T02:52:35;0.00;99.90
52495;DHT22;38405;53.212;5.660;2022-11-20T02:55:01;0.00;99.90
52495;DHT22;38405;53.212;5.660;2022-11-20T02:57:27;0.00;99.90
52495;DHT22;38405;53.212;5.660;2022-11-20T02:59:53;0.00;99.90
52495;DHT22;38405;53.212;5.660;2022-11-20T03:02:19;0.00;99.90
52495;DHT22;38405;53.212;5.660;2022-11-20T03:04:44;0.00;99.90
52495;DHT22;38405;53.212;5.660;2022-11-20T03:07:10;0.00;99.90
52495;DHT22;38405;53.212;5.660;2022-11-20T03:09:36;0.00;99.90
52495;DHT22;38405;53.212;5.660;2022-11-20T03:12:01;0.00;99.90
52495;DHT22;38405;53.212;5.660;2022-11-20T03:14:27;0.00;99.90
52495;DHT22;38405;53.212;5.660;2022-11-20T03:16:52;-0.10;99.90
52495;DHT22;38405;53.212;5.660;2022-11-20T03:19:18;0.00;99.90
52495;DHT22;38405;53.212;5.660;2022-11-20T03:21:44;0.00;99.90
52495;DHT22;38405;53.212;5.660;2022-11-20T03:24:09;0.00;99.90
52495;DHT22;38405;53.212;5.660;2022-11-20T03:26:39;-0.10;99.90
52495;DHT22;38405;53.212;5.660;2022-11-20T03:29:05;-0.10;99.90
52495;DHT22;38405;53.212;5.660;2022-11-20T03:31:36;-0.10;99.90
52495;DHT22;38405;53.212;5.660;2022-11-20T03:34:02;-0.10;99.90
52495;DHT22;38405;53.212;5.660;2022-11-20T03:36:29;-0.20;99.90
52495;DHT22;38405;53.212;5.660;2022-11-20T03:38:56;-0.20;99.90
52495;DHT22;38405;53.212;5.660;2022-11-20T03:41:27;-0.30;99.90
52495;DHT22;38405;53.212;5.660;2022-11-20T03:44:04;-0.30;99.90
52495;DHT22;38405;53.212;5.660;2022-11-20T03:46:30;-0.30;99.90
52495;DHT22;38405;53.212;5.660;2022-11-20T03:48:59;-0.40;99.90
52495;DHT22;38405;53.212;5.660;2022-11-20T03:51:27;-0.40;99.90
52495;DHT22;38405;53.212;5.660;2022-11-20T03:53:56;-0.40;99.90
52495;DHT22;38405;53.212;5.660;2022-11-20T03:56:33;-0.50;99.90
52495;DHT22;38405;53.212;5.660;2022-11-20T03:59:00;-0.60;99.90
52495;DHT22;38405;53.212;5.660;2022-11-20T04:01:29;-0.60;99.90
52495;DHT22;38405;53.212;5.660;2022-11-20T04:03:56;-0.70;99.90
52495;DHT22;38405;53.212;5.660;2022-11-20T04:06:24;-0.70;99.90
52495;DHT22;38405;53.212;5.660;2022-11-20T04:08:50;-0.80;99.90
52495;DHT22;38405;53.212;5.660;2022-11-20T04:11:22;-0.80;99.90
52495;DHT22;38405;53.212;5.660;2022-11-20T04:13:53;-0.80;99.90
52495;DHT22;38405;53.212;5.660;2022-11-20T04:16:19;-0.90;99.90
52495;DHT22;38405;53.212;5.660;2022-11-20T04:18:55;-0.90;99.90
52495;DHT22;38405;53.212;5.660;2022-11-20T04:21:22;-0.90;99.90
52495;DHT22;38405;53.212;5.660;2022-11-20T04:23:48;-0.90;99.90
52495;DHT22;38405;53.212;5.660;2022-11-20T04:26:15;-0.80;99.90
52495;DHT22;38405;53.212;5.660;2022-11-20T04:28:40;-0.90;99.90
52495;DHT22;38405;53.212;5.660;2022-11-20T04:31:08;-0.90;99.90
52495;DHT22;38405;53.212;5.660;2022-11-20T04:33:35;-1.00;99.90
52495;DHT22;38405;53.212;5.660;2022-11-20T04:36:11;-1.10;99.90
52495;DHT22;38405;53.212;5.660;2022-11-20T04:38:38;-1.20;99.90
52495;DHT22;38405;53.212;5.660;2022-11-20T04:41:05;-1.20;99.90
52495;DHT22;38405;53.212;5.660;2022-11-20T04:43:31;-1.20;99.90
52495;DHT22;38405;53.212;5.660;2022-11-20T04:46:01;-1.20;99.90
52495;DHT22;38405;53.212;5.660;2022-11-20T04:48:27;-1.30;99.90
52495;DHT22;38405;53.212;5.660;2022-11-20T04:50:54;-1.30;99.90
52495;DHT22;38405;53.212;5.660;2022-11-20T04:53:20;-1.40;99.90
52495;DHT22;38405;53.212;5.660;2022-11-20T04:55:46;-1.40;99.90
52495;DHT22;38405;53.212;5.660;2022-11-20T04:58:12;-1.00;99.90
52495;DHT22;38405;53.212;5.660;2022-11-20T05:00:38;-1.50;99.90
52495;DHT22;38405;53.212;5.660;2022-11-20T05:03:06;-1.50;99.90
52495;DHT22;38405;53.212;5.660;2022-11-20T05:05:34;-1.60;99.90
52495;DHT22;38405;53.212;5.660;2022-11-20T05:07:59;-1.60;99.90
52495;DHT22;38405;53.212;5.660;2022-11-20T05:10:26;-1.70;99.90
52495;DHT22;38405;53.212;5.660;2022-11-20T05:12:51;-1.80;99.90
52495;DHT22;38405;53.212;5.660;2022-11-20T05:15:17;-1.80;99.90
52495;DHT22;38405;53.212;5.660;2022-11-20T05:17:50;-1.90;99.90
52495;DHT22;38405;53.212;5.660;2022-11-20T05:20:16;-1.90;99.90
52495;DHT22;38405;53.212;5.660;2022-11-20T05:22:46;-1.90;99.90
52495;DHT22;38405;53.212;5.660;2022-11-20T05:25:12;-1.90;99.90
52495;DHT22;38405;53.212;5.660;2022-11-20T05:27:39;-1.90;99.90
52495;DHT22;38405;53.212;5.660;2022-11-20T05:30:06;-1.90;99.90
52495;DHT22;38405;53.212;5.660;2022-11-20T05:32:32;-1.90;99.90
52495;DHT22;38405;53.212;5.660;2022-11-20T05:34:57;-1.90;99.90
52495;DHT22;38405;53.212;5.660;2022-11-20T05:37:23;-1.90;99.90
52495;DHT22;38405;53.212;5.660;2022-11-20T05:39:49;-1.90;99.90
52495;DHT22;38405;53.212;5.660;2022-11-20T05:42:17;-1.80;99.90
52495;DHT22;38405;53.212;5.660;2022-11-20T05:44:55;-1.70;99.90
52495;DHT22;38405;53.212;5.660;2022-11-20T05:47:21;-1.70;99.90
52495;DHT22;38405;53.212;5.660;2022-11-20T05:49:47;-1.60;99.90
52495;DHT22;38405;53.212;5.660;2022-11-20T05:52:12;-1.60;99.90
52495;DHT22;38405;53.212;5.660;2022-11-20T05:54:38;-1.60;99.90
52495;DHT22;38405;53.212;5.660;2022-11-20T05:57:04;-1.60;99.90
52495;DHT22;38405;53.212;5.660;2022-11-20T05:59:30;-1.50;99.90
52495;DHT22;38405;53.212;5.660;2022-11-20T06:01:56;-1.50;99.90
52495;DHT22;38405;53.212;5.660;2022-11-20T06:04:21;-1.50;99.90
52495;DHT22;38405;53.212;5.660;2022-11-20T06:06:47;-1.50;99.90
52495;DHT22;38405;53.212;5.660;2022-11-20T06:09:16;-1.50;99.90
52495;DHT22;38405;53.212;5.660;2022-11-20T06:11:47;-1.50;99.90
52495;DHT22;38405;53.212;5.660;2022-11-20T06:14:12;-1.50;99.90
52495;DHT22;38405;53.212;5.660;2022-11-20T06:16:38;-1.40;99.90
52495;DHT22;38405;53.212;5.660;2022-11-20T06:19:04;-1.40;99.90
52495;DHT22;38405;53.212;5.660;2022-11-20T06:21:29;-1.40;99.90
52495;DHT22;38405;53.212;5.660;2022-11-20T06:23:55;-1.30;99.90
52495;DHT22;38405;53.212;5.660;2022-11-20T06:26:24;-1.30;99.90
52495;DHT22;38405;53.212;5.660;2022-11-20T06:28:52;-1.30;99.90
52495;DHT22;38405;53.212;5.660;2022-11-20T06:31:20;-1.20;99.90
52495;DHT22;38405;53.212;5.660;2022-11-20T06:33:46;-1.30;99.90
52495;DHT22;38405;53.212;5.660;2022-11-20T06:36:14;-1.30;99.90
52495;DHT22;38405;53.212;5.660;2022-11-20T06:38:40;-1.30;99.90
52495;DHT22;38405;53.212;5.660;2022-11-20T06:41:10;-1.30;99.90
52495;DHT22;38405;53.212;5.660;2022-11-20T06:43:36;-1.30;99.90
52495;DHT22;38405;53.212;5.660;2022-11-20T06:46:01;-1.30;99.90
52495;DHT22;38405;53.212;5.660;2022-11-20T06:48:27;-1.20;99.90
52495;DHT22;38405;53.212;5.660;2022-11-20T06:50:53;-1.20;99.90
52495;DHT22;38405;53.212;5.660;2022-11-20T06:53:19;-1.20;99.90
52495;DHT22;38405;53.212;5.660;2022-11-20T06:55:45;-1.10;99.90
52495;DHT22;38405;53.212;5.660;2022-11-20T06:58:15;-1.10;99.90
52495;DHT22;38405;53.212;5.660;2022-11-20T07:00:41;-1.10;99.90
52495;DHT22;38405;53.212;5.660;2022-11-20T07:03:09;-1.00;99.90
52495;DHT22;38405;53.212;5.660;2022-11-20T07:05:35;-0.90;99.90
52495;DHT22;38405;53.212;5.660;2022-11-20T07:08:01;-0.90;99.90
52495;DHT22;38405;53.212;5.660;2022-11-20T07:10:27;-0.90;99.90
52495;DHT22;38405;53.212;5.660;2022-11-20T07:12:53;-0.90;99.90
52495;DHT22;38405;53.212;5.660;2022-11-20T07:15:21;-0.90;99.90
52495;DHT22;38405;53.212;5.660;2022-11-20T07:17:47;-0.90;99.90
52495;DHT22;38405;53.212;5.660;2022-11-20T07:20:15;-1.00;99.90
52495;DHT22;38405;53.212;5.660;2022-11-20T07:22:44;-1.00;99.90
52495;DHT22;38405;53.212;5.660;2022-11-20T07:25:10;-0.90;99.90
52495;DHT22;38405;53.212;5.660;2022-11-20T07:27:36;-0.90;99.90
52495;DHT22;38405;53.212;5.660;2022-11-20T07:30:03;-0.90;99.90
52495;DHT22;38405;53.212;5.660;2022-11-20T07:32:28;-0.90;99.90
52495;DHT22;38405;53.212;5.660;2022-11-20T07:34:54;-0.90;99.90
52495;DHT22;38405;53.212;5.660;2022-11-20T07:37:20;-1.00;99.90
52495;DHT22;38405;53.212;5.660;2022-11-20T07:39:46;-1.00;99.90
52495;DHT22;38405;53.212;5.660;2022-11-20T07:42:11;-1.00;99.90
52495;DHT22;38405;53.212;5.660;2022-11-20T07:44:38;-1.10;99.90
52495;DHT22;38405;53.212;5.660;2022-11-20T07:47:04;-1.10;99.90
52495;DHT22;38405;53.212;5.660;2022-11-20T07:49:29;-1.20;99.90
52495;DHT22;38405;53.212;5.660;2022-11-20T07:51:58;-1.20;99.90
52495;DHT22;38405;53.212;5.660;2022-11-20T07:54:24;0.20;99.90
52495;DHT22;38405;53.212;5.660;2022-11-20T07:56:50;-1.20;99.90
52495;DHT22;38405;53.212;5.660;2022-11-20T07:59:19;-1.10;99.90
52495;DHT22;38405;53.212;5.660;2022-11-20T08:01:44;-1.00;99.90
52495;DHT22;38405;53.212;5.660;2022-11-20T08:04:10;-0.90;99.90
52495;DHT22;38405;53.212;5.660;2022-11-20T08:06:36;-0.60;99.90
52495;DHT22;38405;53.212;5.660;2022-11-20T08:09:02;-0.90;99.90
52495;DHT22;38405;53.212;5.660;2022-11-20T08:11:28;-0.90;99.90
52495;DHT22;38405;53.212;5.660;2022-11-20T08:14:13;-0.70;99.90
52495;DHT22;38405;53.212;5.660;2022-11-20T08:16:46;-0.50;99.90
52495;DHT22;38405;53.212;5.660;2022-11-20T08:19:13;-0.20;99.90
52495;DHT22;38405;53.212;5.660;2022-11-20T08:21:39;0.00;99.90
52495;DHT22;38405;53.212;5.660;2022-11-20T08:24:06;0.50;99.90
52495;DHT22;38405;53.212;5.660;2022-11-20T08:26:32;0.60;99.90
52495;DHT22;38405;53.212;5.660;2022-11-20T08:28:58;0.80;99.90
52495;DHT22;38405;53.212;5.660;2022-11-20T08:31:25;1.00;99.90
52495;DHT22;38405;53.212;5.660;2022-11-20T08:33:51;1.80;99.90
52495;DHT22;38405;53.212;5.660;2022-11-20T08:36:17;1.40;99.90
52495;DHT22;38405;53.212;5.660;2022-11-20T08:38:50;1.60;99.90
52495;DHT22;38405;53.212;5.660;2022-11-20T08:41:16;1.90;99.90
52495;DHT22;38405;53.212;5.660;2022-11-20T08:43:58;1.80;99.90
52495;DHT22;38405;53.212;5.660;2022-11-20T08:46:26;2.00;99.90
52495;DHT22;38405;53.212;5.660;2022-11-20T08:48:52;2.10;99.90
52495;DHT22;38405;53.212;5.660;2022-11-20T08:51:19;2.30;99.90
52495;DHT22;38405;53.212;5.660;2022-11-20T08:53:45;2.50;99.90
52495;DHT22;38405;53.212;5.660;2022-11-20T08:56:12;2.60;99.90
52495;DHT22;38405;53.212;5.660;2022-11-20T08:58:38;2.70;99.90
52495;DHT22;38405;53.212;5.660;2022-11-20T09:01:04;3.00;99.90
52495;DHT22;38405;53.212;5.660;2022-11-20T09:03:30;3.10;99.90
52495;DHT22;38405;53.212;5.660;2022-11-20T09:06:00;3.60;99.90
52495;DHT22;38405;53.212;5.660;2022-11-20T09:08:27;4.30;99.90
52495;DHT22;38405;53.212;5.660;2022-11-20T09:10:54;3.70;99.90
52495;DHT22;38405;53.212;5.660;2022-11-20T09:13:24;3.90;99.90
52495;DHT22;38405;53.212;5.660;2022-11-20T09:16:08;4.00;99.90
52495;DHT22;38405;53.212;5.660;2022-11-20T09:18:35;4.20;99.90
52495;DHT22;38405;53.212;5.660;2022-11-20T09:21:08;4.40;99.90
52495;DHT22;38405;53.212;5.660;2022-11-20T09:23:35;4.40;99.90
52495;DHT22;38405;53.212;5.660;2022-11-20T09:26:06;4.40;99.90
52495;DHT22;38405;53.212;5.660;2022-11-20T09:28:32;4.40;99.90
52495;DHT22;38405;53.212;5.660;2022-11-20T09:30:58;4.20;99.90
52495;DHT22;38405;53.212;5.660;2022-11-20T09:33:26;4.10;99.90
52495;DHT22;38405;53.212;5.660;2022-11-20T09:35:52;4.30;99.90
52495;DHT22;38405;53.212;5.660;2022-11-20T09:38:18;4.50;99.90
52495;DHT22;38405;53.212;5.660;2022-11-20T09:46:26;4.90;99.90
52495;DHT22;38405;53.212;5.660;2022-11-20T09:54:19;4.70;99.90
52495;DHT22;38405;53.212;5.660;2022-11-20T09:56:56;4.40;99.90
52495;DHT22;38405;53.212;5.660;2022-11-20T09:59:39;4.40;99.90
52495;DHT22;38405;53.212;5.660;2022-11-20T10:04:47;4.30;99.90
52495;DHT22;38405;53.212;5.660;2022-11-20T10:07:30;4.30;99.90
52495;DHT22;38405;53.212;5.660;2022-11-20T10:09:56;4.30;99.90
52495;DHT22;38405;53.212;5.660;2022-11-20T10:15:42;4.60;99.90
52495;DHT22;38405;53.212;5.660;2022-11-20T10:29:34;4.20;99.90
52495;DHT22;38405;53.212;5.660;2022-11-20T10:32:09;4.50;99.90
52495;DHT22;38405;53.212;5.660;2022-11-20T10:37:29;4.50;99.90
52495;DHT22;38405;53.212;5.660;2022-11-20T10:40:20;4.60;99.90
52495;DHT22;38405;53.212;5.660;2022-11-20T10:48:16;4.30;99.90
52495;DHT22;38405;53.212;5.660;2022-11-20T10:59:30;3.70;99.90
52495;DHT22;38405;53.212;5.660;2022-11-20T11:01:57;3.70;99.90
52495;DHT22;38405;53.212;5.660;2022-11-20T11:09:48;3.50;99.90
52495;DHT22;38405;53.212;5.660;2022-11-20T11:12:15;3.50;99.90
52495;DHT22;38405;53.212;5.660;2022-11-20T11:14:51;3.50;99.90
52495;DHT22;38405;53.212;5.660;2022-11-20T11:17:31;3.50;99.90
52495;DHT22;38405;53.212;5.660;2022-11-20T11:22:28;3.50;99.90
52495;DHT22;38405;53.212;5.660;2022-11-20T11:24:55;3.60;99.90
52495;DHT22;38405;53.212;5.660;2022-11-20T11:27:20;3.80;99.90
52495;DHT22;38405;53.212;5.660;2022-11-20T11:29:46;4.10;99.90
52495;DHT22;38405;53.212;5.660;2022-11-20T11:32:19;4.30;99.90
52495;DHT22;38405;53.212;5.660;2022-11-20T11:35:03;4.40;99.90
52495;DHT22;38405;53.212;5.660;2022-11-20T11:37:34;4.50;99.90
52495;DHT22;38405;53.212;5.660;2022-11-20T11:40:04;5.20;99.90
52495;DHT22;38405;53.212;5.660;2022-11-20T11:42:31;4.50;99.90
52495;DHT22;38405;53.212;5.660;2022-11-20T11:44:59;4.40;99.90
52495;DHT22;38405;53.212;5.660;2022-11-20T11:50:16;5.00;99.90
52495;DHT22;38405;53.212;5.660;2022-11-20T11:52:44;4.10;99.90
52495;DHT22;38405;53.212;5.660;2022-11-20T11:55:29;4.00;99.90
52495;DHT22;38405;53.212;5.660;2022-11-20T11:58:30;3.90;99.90
52495;DHT22;38405;53.212;5.660;2022-11-20T12:01:07;3.80;99.90
52495;DHT22;38405;53.212;5.660;2022-11-20T12:03:39;3.80;99.90
52495;DHT22;38405;53.212;5.660;2022-11-20T12:06:14;3.60;99.90
52495;DHT22;38405;53.212;5.660;2022-11-20T12:08:59;3.60;99.90
52495;DHT22;38405;53.212;5.660;2022-11-20T12:14:03;3.40;99.90
52495;DHT22;38405;53.212;5.660;2022-11-20T12:16:35;3.40;99.90
52495;DHT22;38405;53.212;5.660;2022-11-20T12:19:01;3.40;99.90
52495;DHT22;38405;53.212;5.660;2022-11-20T12:21:35;3.10;99.90
52495;DHT22;38405;53.212;5.660;2022-11-20T12:26:56;3.00;99.90
52495;DHT22;38405;53.212;5.660;2022-11-20T12:29:55;3.00;99.90
52495;DHT22;38405;53.212;5.660;2022-11-20T12:41:19;3.00;99.90
52495;DHT22;38405;53.212;5.660;2022-11-20T12:59:06;3.10;99.90
52495;DHT22;38405;53.212;5.660;2022-11-20T13:07:08;3.00;99.90
52495;DHT22;38405;53.212;5.660;2022-11-20T13:09:43;3.10;99.90
52495;DHT22;38405;53.212;5.660;2022-11-20T13:12:44;3.10;99.90
52495;DHT22;38405;53.212;5.660;2022-11-20T13:15:43;3.00;99.90
52495;DHT22;38405;53.212;5.660;2022-11-20T13:18:11;3.00;99.90
52495;DHT22;38405;53.212;5.660;2022-11-20T13:20:46;2.90;99.90
52495;DHT22;38405;53.212;5.660;2022-11-20T13:23:26;3.00;99.90
52495;DHT22;38405;53.212;5.660;2022-11-20T13:26:03;2.90;99.90
52495;DHT22;38405;53.212;5.660;2022-11-20T13:28:30;2.90;99.90
52495;DHT22;38405;53.212;5.660;2022-11-20T13:30:57;2.80;99.90
52495;DHT22;38405;53.212;5.660;2022-11-20T13:33:32;2.70;99.90
52495;DHT22;38405;53.212;5.660;2022-11-20T13:36:20;2.70;99.90
52495;DHT22;38405;53.212;5.660;2022-11-20T13:38:48;2.70;99.90
52495;DHT22;38405;53.212;5.660;2022-11-20T13:41:32;2.70;99.90
52495;DHT22;38405;53.212;5.660;2022-11-20T13:44:24;2.60;99.90
52495;DHT22;38405;53.212;5.660;2022-11-20T13:46:50;2.60;99.90
52495;DHT22;38405;53.212;5.660;2022-11-20T13:49:39;2.50;99.90
52495;DHT22;38405;53.212;5.660;2022-11-20T13:55:34;2.50;99.90
52495;DHT22;38405;53.212;5.660;2022-11-20T14:03:23;2.50;99.90
52495;DHT22;38405;53.212;5.660;2022-11-20T14:06:01;2.50;99.90
52495;DHT22;38405;53.212;5.660;2022-11-20T14:08:38;2.40;99.90
52495;DHT22;38405;53.212;5.660;2022-11-20T14:14:13;2.40;99.90
52495;DHT22;38405;53.212;5.660;2022-11-20T14:16:39;2.40;99.90
52495;DHT22;38405;53.212;5.660;2022-11-20T14:19:29;2.30;99.90
52495;DHT22;38405;53.212;5.660;2022-11-20T14:22:23;3.20;99.90
52495;DHT22;38405;53.212;5.660;2022-11-20T14:27:48;2.30;99.90
52495;DHT22;38405;53.212;5.660;2022-11-20T14:30:19;2.30;99.90
52495;DHT22;38405;53.212;5.660;2022-11-20T14:32:49;2.50;99.90
52495;DHT22;38405;53.212;5.660;2022-11-20T14:35:45;2.30;99.90
52495;DHT22;38405;53.212;5.660;2022-11-20T14:38:17;2.40;99.90
52495;DHT22;38405;53.212;5.660;2022-11-20T14:40:44;2.40;99.90
52495;DHT22;38405;53.212;5.660;2022-11-20T14:43:21;2.40;99.90
52495;DHT22;38405;53.212;5.660;2022-11-20T14:46:08;2.40;99.90
52495;DHT22;38405;53.212;5.660;2022-11-20T14:48:45;2.40;99.90
52495;DHT22;38405;53.212;5.660;2022-11-20T14:54:02;2.40;99.90
52495;DHT22;38405;53.212;5.660;2022-11-20T14:56:32;2.40;99.90
52495;DHT22;38405;53.212;5.660;2022-11-20T14:58:58;2.30;99.90
52495;DHT22;38405;53.212;5.660;2022-11-20T15:01:29;2.40;99.90
52495;DHT22;38405;53.212;5.660;2022-11-20T15:04:06;2.30;99.90
52495;DHT22;38405;53.212;5.660;2022-11-20T15:06:31;2.30;99.90
52495;DHT22;38405;53.212;5.660;2022-11-20T15:09:01;2.30;99.90
52495;DHT22;38405;53.212;5.660;2022-11-20T15:11:36;2.40;99.90
52495;DHT22;38405;53.212;5.660;2022-11-20T15:14:05;2.30;99.90
52495;DHT22;38405;53.212;5.660;2022-11-20T15:16:33;2.30;99.90
52495;DHT22;38405;53.212;5.660;2022-11-20T15:19:00;2.40;99.90
52495;DHT22;38405;53.212;5.660;2022-11-20T15:21:25;2.30;99.90
52495;DHT22;38405;53.212;5.660;2022-11-20T15:23:51;2.20;99.90
52495;DHT22;38405;53.212;5.660;2022-11-20T15:26:26;2.20;99.90
52495;DHT22;38405;53.212;5.660;2022-11-20T15:28:52;2.30;99.90
52495;DHT22;38405;53.212;5.660;2022-11-20T15:31:21;2.30;99.90
52495;DHT22;38405;53.212;5.660;2022-11-20T15:33:50;2.20;99.90
52495;DHT22;38405;53.212;5.660;2022-11-20T15:36:16;2.30;99.90
52495;DHT22;38405;53.212;5.660;2022-11-20T15:38:42;2.30;99.90
52495;DHT22;38405;53.212;5.660;2022-11-20T15:41:08;2.30;99.90
52495;DHT22;38405;53.212;5.660;2022-11-20T15:43:56;2.30;99.90
52495;DHT22;38405;53.212;5.660;2022-11-20T15:46:31;2.30;99.90
52495;DHT22;38405;53.212;5.660;2022-11-20T15:49:04;2.30;99.90
52495;DHT22;38405;53.212;5.660;2022-11-20T15:51:38;2.30;99.90
52495;DHT22;38405;53.212;5.660;2022-11-20T15:54:19;2.30;99.90
52495;DHT22;38405;53.212;5.660;2022-11-20T15:56:46;2.30;99.90
52495;DHT22;38405;53.212;5.660;2022-11-20T15:59:12;2.30;99.90
52495;DHT22;38405;53.212;5.660;2022-11-20T16:01:39;2.30;99.90
52495;DHT22;38405;53.212;5.660;2022-11-20T16:04:10;2.30;99.90
52495;DHT22;38405;53.212;5.660;2022-11-20T16:06:55;2.30;99.90
52495;DHT22;38405;53.212;5.660;2022-11-20T16:09:20;2.30;99.90
52495;DHT22;38405;53.212;5.660;2022-11-20T16:11:46;2.30;99.90
52495;DHT22;38405;53.212;5.660;2022-11-20T16:14:12;2.30;99.90
52495;DHT22;38405;53.212;5.660;2022-11-20T16:16:56;2.30;99.90
52495;DHT22;38405;53.212;5.660;2022-11-20T16:19:21;2.30;99.90
52495;DHT22;38405;53.212;5.660;2022-11-20T16:21:47;2.30;99.90
52495;DHT22;38405;53.212;5.660;2022-11-20T16:24:14;2.30;99.90
52495;DHT22;38405;53.212;5.660;2022-11-20T16:26:40;2.30;99.90
52495;DHT22;38405;53.212;5.660;2022-11-20T16:29:06;2.30;99.90
52495;DHT22;38405;53.212;5.660;2022-11-20T16:31:32;2.50;99.90
52495;DHT22;38405;53.212;5.660;2022-11-20T16:34:00;2.30;99.90
52495;DHT22;38405;53.212;5.660;2022-11-20T16:36:38;2.30;99.90
52495;DHT22;38405;53.212;5.660;2022-11-20T16:39:04;2.30;99.90
52495;DHT22;38405;53.212;5.660;2022-11-20T16:41:32;2.30;99.90
52495;DHT22;38405;53.212;5.660;2022-11-20T16:44:00;2.30;99.90
52495;DHT22;38405;53.212;5.660;2022-11-20T16:46:30;2.20;99.90
52495;DHT22;38405;53.212;5.660;2022-11-20T16:49:01;2.50;99.90
52495;DHT22;38405;53.212;5.660;2022-11-20T16:51:28;2.20;99.90
52495;DHT22;38405;53.212;5.660;2022-11-20T16:53:54;2.20;99.90
52495;DHT22;38405;53.212;5.660;2022-11-20T16:56:42;2.20;99.90
52495;DHT22;38405;53.212;5.660;2022-11-20T16:59:10;2.20;99.90
52495;DHT22;38405;53.212;5.660;2022-11-20T17:01:35;2.20;99.90
52495;DHT22;38405;53.212;5.660;2022-11-20T17:04:05;2.20;99.90
52495;DHT22;38405;53.212;5.660;2022-11-20T17:06:40;2.20;99.90
52495;DHT22;38405;53.212;5.660;2022-11-20T17:09:06;2.20;99.90
52495;DHT22;38405;53.212;5.660;2022-11-20T17:11:34;2.20;99.90
52495;DHT22;38405;53.212;5.660;2022-11-20T17:14:00;2.10;99.90
52495;DHT22;38405;53.212;5.660;2022-11-20T17:16:30;2.20;99.90
52495;DHT22;38405;53.212;5.660;2022-11-20T17:18:56;2.10;99.90
52495;DHT22;38405;53.212;5.660;2022-11-20T17:21:22;2.10;99.90
52495;DHT22;38405;53.212;5.660;2022-11-20T17:23:48;2.10;99.90
52495;DHT22;38405;53.212;5.660;2022-11-20T17:26:19;2.10;99.90
52495;DHT22;38405;53.212;5.660;2022-11-20T17:28:52;2.10;99.90
52495;DHT22;38405;53.212;5.660;2022-11-20T17:31:18;2.10;99.90
52495;DHT22;38405;53.212;5.660;2022-11-20T17:33:46;2.10;99.90
52495;DHT22;38405;53.212;5.660;2022-11-20T17:36:14;2.10;99.90
52495;DHT22;38405;53.212;5.660;2022-11-20T17:38:40;2.10;99.90
52495;DHT22;38405;53.212;5.660;2022-11-20T17:41:09;2.10;99.90
52495;DHT22;38405;53.212;5.660;2022-11-20T17:43:35;2.10;99.90
52495;DHT22;38405;53.212;5.660;2022-11-20T17:46:10;2.10;99.90
52495;DHT22;38405;53.212;5.660;2022-11-20T17:48:36;2.10;99.90
52495;DHT22;38405;53.212;5.660;2022-11-20T17:51:03;2.10;99.90